fecha-hora | temperatura | viento dirección-velocidad-rachas | humedad | presión

  • 03-08-2020 21:00:00 | 25.90°C | Este-13.00 km/h - 24.00 km/h | 75.00% | 1009.80 hPa
  • 03-08-2020 21:00:00 | 25.90°C | Este-13.00 km/h - 24.00 km/h | 75.00% | 1009.80 hPa
  • 03-08-2020 20:00:00 | 26.60°C | Este-12.00 km/h - 22.00 km/h | 72.00% | 1009.60 hPa
  • 03-08-2020 19:00:00 | 27.70°C | Este-14.00 km/h - 26.00 km/h | 67.00% | 1009.40 hPa
  • 03-08-2020 18:00:00 | 28.40°C | Este-15.00 km/h - 30.00 km/h | 65.00% | 1009.30 hPa
  • 03-08-2020 17:00:00 | 28.60°C | Este-17.00 km/h - 32.00 km/h | 66.00% | 1009.40 hPa
  • 03-08-2020 16:00:00 | 28.00°C | Este-23.00 km/h - 32.00 km/h | 69.00% | 1009.70 hPa
  • 03-08-2020 15:00:00 | 29.40°C | Nordeste-22.00 km/h - 32.00 km/h | 63.00% | 1010.20 hPa
  • 03-08-2020 14:00:00 | 28.40°C | Este-21.00 km/h - 32.00 km/h | 67.00% | 1010.60 hPa
  • 03-08-2020 13:00:00 | 29.10°C | Este-18.00 km/h - 30.00 km/h | 66.00% | 1010.60 hPa
  • 03-08-2020 12:00:00 | 27.70°C | Este-21.00 km/h - 32.00 km/h | 71.00% | 1010.20 hPa
  • 03-08-2020 11:00:00 | 26.90°C | Este-21.00 km/h - 30.00 km/h | 73.00% | 1010.10 hPa
  • 03-08-2020 10:00:00 | 26.90°C | Este-19.00 km/h - 30.00 km/h | 75.00% | 1010.20 hPa
  • 03-08-2020 09:00:00 | 26.50°C | Este-18.00 km/h - 28.00 km/h | 77.00% | 1010.10 hPa
  • 03-08-2020 08:00:00 | 26.10°C | Este-15.00 km/h - 24.00 km/h | 79.00% | 1010.60 hPa
  • 03-08-2020 07:00:00 | 25.90°C | Este-13.00 km/h - 22.00 km/h | 81.00% | 1010.00 hPa
  • 03-08-2020 06:00:00 | 25.90°C | Este-13.00 km/h - 21.00 km/h | 82.00% | 1009.40 hPa
  • 03-08-2020 05:00:00 | 25.80°C | Este-12.00 km/h - 17.00 km/h | 81.00% | 1009.70 hPa
  • 03-08-2020 04:00:00 | 25.90°C | Este-9.00 km/h - 17.00 km/h | 81.00% | 1010.00 hPa
  • 03-08-2020 03:00:00 | 26.00°C | Este-11.00 km/h - 18.00 km/h | 81.00% | 1010.30 hPa
  • 03-08-2020 02:00:00 | 26.20°C | Nordeste-12.00 km/h - 22.00 km/h | 81.00% | 1010.80 hPa
  • 03-08-2020 01:00:00 | 26.30°C | Nordeste-13.00 km/h - 22.00 km/h | 81.00% | 1010.70 hPa
  • 03-08-2020 00:00:00 | 26.40°C | Este-12.00 km/h - 24.00 km/h | 84.00% | 1010.60 hPa
  • 02-08-2020 23:00:00 | 26.60°C | Este-12.00 km/h - 21.00 km/h | 84.00% | 1010.80 hPa
    • diseño web asturias Información sobre el estado de las mareas, altura de la marejada, temperatura del agua y otros datos de Gijón en Asturias.

      Surf Gijón